Time;durP1;ratioP1;P1;durP2;ratioP2;P2;SDS_P1;SDS_P2;PMS_P1;PMS_P2;Temp;Humidity;BMP_temperature;BMP_pressure;BME280_temperature;BME280_humidity;BME280_pressure;Samples;Min_cycle;Max_cycle;Signal;HPM_P1;HPM_P2
2022/10/23 00:02:09;;;;;;;7.10;3.30;;;;;;;;;;5012885;28;20058;-45
2022/10/23 00:04:35;;;;;;;11.05;5.13;;;;;;;;;;5007256;28;20050;-46
2022/10/23 00:07:01;;;;;;;9.10;4.32;;;;;;;;;;5028091;28;20057;-44
2022/10/23 00:09:30;;;;;;;10.00;3.90;;;;;;;;;;5008227;28;20863;-44
2022/10/23 00:12:00;;;;;;;9.52;4.38;;;;;;;;;;5020306;28;20569;-45
2022/10/23 00:14:28;;;;;;;8.52;4.28;;;;;;;;;;5032593;28;20537;-44
2022/10/23 00:16:58;;;;;;;9.93;4.18;;;;;;;;;;4999417;28;20360;-46
2022/10/23 00:19:25;;;;;;;10.10;3.95;;;;;;;;;;5012659;28;20171;-44
2022/10/23 00:21:55;;;;;;;9.98;4.95;;;;;;;;;;5012215;28;20061;-44
2022/10/23 00:24:25;;;;;;;9.25;4.38;;;;;;;;;;5016203;28;20058;-44
2022/10/23 00:26:57;;;;;;;8.45;3.42;;;;;;;;;;5012132;28;20064;-45
2022/10/23 00:29:26;;;;;;;6.43;3.42;;;;;;;;;;5012318;28;20404;-46
2022/10/23 00:31:55;;;;;;;10.38;4.55;;;;;;;;;;5005127;28;20054;-46
2022/10/23 00:34:24;;;;;;;9.20;3.75;;;;;;;;;;5013791;28;20053;-45
2022/10/23 00:36:51;;;;;;;9.00;3.10;;;;;;;;;;4994514;28;20421;-45
2022/10/23 00:39:19;;;;;;;6.60;3.40;;;;;;;;;;5011982;28;20052;-44
2022/10/23 00:41:48;;;;;;;7.75;4.05;;;;;;;;;;5009528;28;20065;-45
2022/10/23 00:44:34;;;;;;;11.38;5.80;;;;;;;;;;5035877;28;20538;-45
2022/10/23 00:47:12;;;;;;;9.55;4.13;;;;;;;;;;5010794;28;20053;-46
2022/10/23 00:49:42;;;;;;;11.18;3.88;;;;;;;;;;5007889;28;20042;-46
2022/10/23 00:52:12;;;;;;;10.68;4.05;;;;;;;;;;5022599;28;20079;-45
2022/10/23 00:54:40;;;;;;;8.00;3.50;;;;;;;;;;5018951;28;20089;-44
2022/10/23 00:57:08;;;;;;;7.50;3.67;;;;;;;;;;5008634;28;20063;-44
2022/10/23 00:59:37;;;;;;;9.57;3.78;;;;;;;;;;5026008;28;20053;-46
2022/10/23 01:02:18;;;;;;;8.75;4.28;;;;;;;;;;5024650;28;20054;-45
2022/10/23 01:04:48;;;;;;;8.68;3.95;;;;;;;;;;5022055;28;20065;-48
2022/10/23 01:07:22;;;;;;;10.70;4.55;;;;;;;;;;5013722;28;20054;-47
2022/10/23 01:09:54;;;;;;;11.82;5.07;;;;;;;;;;5020771;28;20139;-45
2022/10/23 01:12:28;;;;;;;14.68;5.22;;;;;;;;;;5035467;28;20574;-45
2022/10/23 01:15:03;;;;;;;9.80;4.25;;;;;;;;;;5030830;28;20050;-46
2022/10/23 01:17:36;;;;;;;11.15;4.25;;;;;;;;;;5026924;28;20057;-44
2022/10/23 01:20:10;;;;;;;8.85;3.95;;;;;;;;;;5026666;28;20168;-44
2022/10/23 01:22:44;;;;;;;9.15;3.88;;;;;;;;;;5010711;28;20510;-44
2022/10/23 01:25:19;;;;;;;9.88;5.07;;;;;;;;;;5014297;28;20054;-46
2022/10/23 01:27:49;;;;;;;13.05;5.25;;;;;;;;;;5025755;28;20068;-45
2022/10/23 01:30:20;;;;;;;9.05;3.70;;;;;;;;;;5035185;28;20045;-45
2022/10/23 01:32:49;;;;;;;12.20;4.72;;;;;;;;;;5022440;28;20053;-45
2022/10/23 01:35:19;;;;;;;9.18;4.18;;;;;;;;;;5002458;28;20046;-44
2022/10/23 01:37:52;;;;;;;8.85;4.20;;;;;;;;;;5005032;28;20049;-46
2022/10/23 01:40:21;;;;;;;9.70;3.92;;;;;;;;;;5015213;28;20057;-46
2022/10/23 01:42:53;;;;;;;11.68;4.35;;;;;;;;;;5014580;28;20068;-46
2022/10/23 01:45:33;;;;;;;14.15;7.05;;;;;;;;;;5024746;28;20080;-46
2022/10/23 01:48:03;;;;;;;10.45;4.50;;;;;;;;;;5035109;28;20049;-45
2022/10/23 01:50:33;;;;;;;9.60;4.43;;;;;;;;;;5013723;28;20054;-44
2022/10/23 01:53:03;;;;;;;11.82;4.63;;;;;;;;;;5023160;28;20061;-48
2022/10/23 01:55:32;;;;;;;14.13;4.85;;;;;;;;;;5004911;28;20376;-46
2022/10/23 01:58:02;;;;;;;10.85;4.57;;;;;;;;;;5010040;28;20061;-44
2022/10/23 02:00:33;;;;;;;9.57;4.10;;;;;;;;;;5005429;28;20087;-46
2022/10/23 02:03:03;;;;;;;8.50;4.20;;;;;;;;;;5003395;28;20046;-45
2022/10/23 02:05:31;;;;;;;10.38;5.10;;;;;;;;;;4999794;28;20050;-44
2022/10/23 02:07:58;;;;;;;9.68;5.05;;;;;;;;;;4999093;28;20511;-45
2022/10/23 02:10:28;;;;;;;13.45;5.30;;;;;;;;;;5008179;28;20057;-46
2022/10/23 02:12:59;;;;;;;14.07;5.15;;;;;;;;;;4994509;28;20440;-47
2022/10/23 02:15:31;;;;;;;7.50;3.60;;;;;;;;;;5016124;28;20049;-46
2022/10/23 02:18:06;;;;;;;7.53;3.92;;;;;;;;;;5019943;28;20081;-44
2022/10/23 02:20:46;;;;;;;9.75;4.57;;;;;;;;;;5013722;28;20058;-45
2022/10/23 02:23:21;;;;;;;8.55;4.15;;;;;;;;;;5012964;28;20054;-44
2022/10/23 02:25:58;;;;;;;10.13;3.75;;;;;;;;;;5004446;28;20113;-47
2022/10/23 02:28:26;;;;;;;11.82;4.70;;;;;;;;;;4994849;28;20360;-45
2022/10/23 02:30:58;;;;;;;10.70;4.80;;;;;;;;;;5006148;28;20475;-44
2022/10/23 02:33:27;;;;;;;9.27;4.18;;;;;;;;;;5004819;28;20050;-47
2022/10/23 02:35:56;;;;;;;9.35;3.72;;;;;;;;;;5033935;28;20053;-46
2022/10/23 02:38:52;;;;;;;10.57;4.50;;;;;;;;;;5003846;28;20061;-44
2022/10/23 02:41:26;;;;;;;10.27;4.30;;;;;;;;;;5013098;28;20054;-45
2022/10/23 02:43:59;;;;;;;15.50;6.63;;;;;;;;;;5014076;28;20049;-47
2022/10/23 02:46:33;;;;;;;10.52;3.95;;;;;;;;;;5009340;28;20054;-45
2022/10/23 02:49:11;;;;;;;8.70;4.15;;;;;;;;;;5009619;28;20065;-46
2022/10/23 02:51:43;;;;;;;8.55;3.55;;;;;;;;;;4994753;28;20046;-44
2022/10/23 02:54:17;;;;;;;7.95;3.90;;;;;;;;;;5009072;28;20057;-45
2022/10/23 02:56:48;;;;;;;10.38;4.93;;;;;;;;;;4999925;28;20045;-43
2022/10/23 02:59:25;;;;;;;8.52;4.45;;;;;;;;;;5013568;28;20050;-49
2022/10/23 03:02:00;;;;;;;7.68;3.83;;;;;;;;;;5012939;28;20050;-44
2022/10/23 03:04:28;;;;;;;10.82;4.70;;;;;;;;;;5013811;28;20058;-43
2022/10/23 03:07:05;;;;;;;10.38;4.60;;;;;;;;;;5013455;28;20470;-45
2022/10/23 03:09:33;;;;;;;7.82;4.28;;;;;;;;;;5009758;28;20128;-45
2022/10/23 03:12:07;;;;;;;12.68;5.03;;;;;;;;;;4995790;28;20133;-45
2022/10/23 03:14:37;;;;;;;10.88;4.82;;;;;;;;;;4999017;28;20049;-44
2022/10/23 03:17:20;;;;;;;9.75;3.97;;;;;;;;;;5013768;28;20062;-45
2022/10/23 03:19:50;;;;;;;9.55;4.85;;;;;;;;;;5000501;28;20045;-44
2022/10/23 03:22:19;;;;;;;12.43;4.60;;;;;;;;;;5013204;28;20502;-45
2022/10/23 03:24:49;;;;;;;11.73;5.13;;;;;;;;;;5013246;28;20049;-45
2022/10/23 03:27:18;;;;;;;11.98;5.07;;;;;;;;;;5001107;28;20058;-45
2022/10/23 03:29:48;;;;;;;10.98;4.50;;;;;;;;;;4997813;28;20473;-46
2022/10/23 03:32:18;;;;;;;14.10;5.82;;;;;;;;;;5013459;28;20057;-46
2022/10/23 03:34:48;;;;;;;16.15;5.53;;;;;;;;;;5012543;28;20050;-45
2022/10/23 03:37:17;;;;;;;13.52;5.10;;;;;;;;;;5002365;28;20050;-47
2022/10/23 03:39:46;;;;;;;14.38;5.47;;;;;;;;;;5011124;28;20053;-45
2022/10/23 03:42:15;;;;;;;11.07;4.63;;;;;;;;;;5024777;28;20470;-48
2022/10/23 03:44:43;;;;;;;9.70;4.55;;;;;;;;;;5025464;28;20406;-44
2022/10/23 03:47:11;;;;;;;12.38;5.13;;;;;;;;;;5032992;28;20064;-43
2022/10/23 03:49:48;;;;;;;14.07;5.55;;;;;;;;;;5032594;28;20148;-43
2022/10/23 03:52:18;;;;;;;13.05;5.50;;;;;;;;;;5032557;28;20053;-46
2022/10/23 03:54:48;;;;;;;11.65;5.03;;;;;;;;;;5015719;28;20097;-45
2022/10/23 03:59:57;;;;;;;13.85;7.32;;;;;;;;;;5022885;28;20049;-44
2022/10/23 04:02:25;;;;;;;13.10;5.50;;;;;;;;;;5032386;28;20053;-45
2022/10/23 04:04:57;;;;;;;14.70;5.75;;;;;;;;;;5027546;28;20065;-44
2022/10/23 04:07:28;;;;;;;21.55;8.00;;;;;;;;;;5011685;28;20065;-44
2022/10/23 04:09:57;;;;;;;23.17;9.13;;;;;;;;;;5012883;28;20050;-45
2022/10/23 04:12:27;;;;;;;20.40;7.78;;;;;;;;;;4999738;28;20054;-45
2022/10/23 04:14:57;;;;;;;21.70;9.48;;;;;;;;;;5015078;28;20137;-44
2022/10/23 04:17:24;;;;;;;17.85;6.75;;;;;;;;;;5016621;28;20049;-46
2022/10/23 04:19:53;;;;;;;21.67;8.52;;;;;;;;;;5016689;28;20038;-44
2022/10/23 04:22:28;;;;;;;14.25;6.25;;;;;;;;;;5002898;28;20345;-45
2022/10/23 04:24:59;;;;;;;;;;;;;;;;;;5013558;28;20163;-44
2022/10/23 04:27:29;;;;;;;9.57;4.75;;;;;;;;;;5021162;28;19921;-45
2022/10/23 04:29:59;;;;;;;10.05;5.20;;;;;;;;;;5009890;28;20037;-45
2022/10/23 04:32:27;;;;;;;16.00;5.80;;;;;;;;;;5036189;28;20053;-43
2022/10/23 04:34:54;;;;;;;14.82;6.95;;;;;;;;;;5021776;28;20076;-44
2022/10/23 04:37:26;;;;;;;10.43;4.97;;;;;;;;;;5035667;28;20053;-44
2022/10/23 04:39:57;;;;;;;14.57;5.93;;;;;;;;;;5015489;28;20752;-44
2022/10/23 04:42:26;;;;;;;12.57;6.40;;;;;;;;;;5023303;28;20050;-44
2022/10/23 04:44:54;;;;;;;14.27;5.68;;;;;;;;;;5035876;28;20061;-45
2022/10/23 04:47:24;;;;;;;13.63;6.30;;;;;;;;;;5035787;28;20371;-46
2022/10/23 04:49:53;;;;;;;13.70;5.65;;;;;;;;;;5035873;28;20045;-45
2022/10/23 04:52:35;;;;;;;10.85;5.07;;;;;;;;;;5014172;28;20049;-46
2022/10/23 04:55:05;;;;;;;12.02;6.22;;;;;;;;;;5006307;28;20065;-43
2022/10/23 04:57:34;;;;;;;13.07;6.40;;;;;;;;;;5007177;28;20333;-44
2022/10/23 05:00:00;;;;;;;14.50;6.30;;;;;;;;;;5007090;28;20054;-44
2022/10/23 05:02:30;;;;;;;13.43;6.35;;;;;;;;;;5006437;28;20053;-43
2022/10/23 05:04:57;;;;;;;11.00;5.38;;;;;;;;;;5002053;28;20084;-46
2022/10/23 05:07:26;;;;;;;11.82;5.47;;;;;;;;;;5006704;28;20053;-44
2022/10/23 05:09:56;;;;;;;11.55;5.72;;;;;;;;;;5006079;28;20046;-44
2022/10/23 05:12:25;;;;;;;11.25;5.20;;;;;;;;;;5012573;28;20085;-44
2022/10/23 05:14:54;;;;;;;11.02;5.25;;;;;;;;;;5009279;28;20458;-45
2022/10/23 05:17:22;;;;;;;12.88;5.88;;;;;;;;;;5004631;28;20093;-45
2022/10/23 05:19:54;;;;;;;14.27;6.20;;;;;;;;;;5008707;28;20481;-44
2022/10/23 05:22:23;;;;;;;13.88;6.18;;;;;;;;;;5008940;28;20392;-44
2022/10/23 05:25:07;;;;;;;12.57;6.35;;;;;;;;;;5011373;28;20053;-43
2022/10/23 05:27:37;;;;;;;12.48;6.18;;;;;;;;;;5014071;28;20050;-45
2022/10/23 05:30:04;;;;;;;11.55;6.28;;;;;;;;;;5015237;28;20463;-44
2022/10/23 05:32:34;;;;;;;13.48;6.20;;;;;;;;;;5009439;28;20053;-45
2022/10/23 05:35:01;;;;;;;12.65;6.70;;;;;;;;;;5007852;28;20046;-44
2022/10/23 05:37:30;;;;;;;17.48;6.20;;;;;;;;;;5010052;28;20057;-47
2022/10/23 05:40:06;;;;;;;11.13;5.68;;;;;;;;;;5006130;28;20058;-44
2022/10/23 05:42:34;;;;;;;11.57;5.85;;;;;;;;;;5023672;28;20064;-43
2022/10/23 05:45:01;;;;;;;12.20;5.28;;;;;;;;;;5015487;28;20050;-45
2022/10/23 05:47:31;;;;;;;16.98;7.70;;;;;;;;;;5028346;28;20053;-44
2022/10/23 05:50:00;;;;;;;13.32;6.47;;;;;;;;;;5014614;28;20571;-44
2022/10/23 05:52:29;;;;;;;13.82;6.53;;;;;;;;;;5014895;28;20053;-45
2022/10/23 05:54:58;;;;;;;14.55;6.85;;;;;;;;;;5017818;28;20128;-45
2022/10/23 05:57:39;;;;;;;16.15;7.50;;;;;;;;;;5015110;28;20062;-46
2022/10/23 06:00:08;;;;;;;18.10;8.10;;;;;;;;;;5004872;28;20061;-45
2022/10/23 06:02:37;;;;;;;19.05;8.57;;;;;;;;;;5025602;28;20073;-44
2022/10/23 06:05:05;;;;;;;19.27;9.32;;;;;;;;;;5016806;28;20046;-44
2022/10/23 06:07:32;;;;;;;25.05;10.65;;;;;;;;;;5008646;28;20054;-45
2022/10/23 06:09:58;;;;;;;19.10;8.40;;;;;;;;;;5014513;28;20054;-44
2022/10/23 06:12:30;;;;;;;21.67;9.85;;;;;;;;;;5009756;28;20054;-48
2022/10/23 06:14:59;;;;;;;22.42;9.30;;;;;;;;;;5012471;28;20054;-44
2022/10/23 06:17:27;;;;;;;18.08;9.20;;;;;;;;;;5017676;28;20050;-45
2022/10/23 06:19:59;;;;;;;25.30;11.27;;;;;;;;;;5008874;28;20103;-47
2022/10/23 06:22:27;;;;;;;23.00;10.90;;;;;;;;;;5008859;28;20057;-44
2022/10/23 06:24:56;;;;;;;25.98;10.73;;;;;;;;;;5008358;28;20050;-44
2022/10/23 06:27:24;;;;;;;24.38;11.07;;;;;;;;;;5010210;28;20361;-44
2022/10/23 06:29:56;;;;;;;28.80;11.20;;;;;;;;;;5014083;28;20053;-44
2022/10/23 06:32:24;;;;;;;27.67;11.10;;;;;;;;;;5006499;28;20050;-44
2022/10/23 06:34:51;;;;;;;24.02;10.90;;;;;;;;;;5006725;28;20049;-45
2022/10/23 06:37:21;;;;;;;22.92;10.93;;;;;;;;;;5002492;28;20046;-45
2022/10/23 06:39:49;;;;;;;26.27;12.00;;;;;;;;;;5007743;28;20096;-44
2022/10/23 06:42:18;;;;;;;26.20;10.88;;;;;;;;;;5001354;28;20345;-45
2022/10/23 06:44:47;;;;;;;26.75;12.00;;;;;;;;;;5022056;28;20046;-44
2022/10/23 06:47:17;;;;;;;29.20;11.73;;;;;;;;;;5016537;28;20053;-44
2022/10/23 06:49:47;;;;;;;30.67;12.82;;;;;;;;;;5025923;28;20392;-46
2022/10/23 06:52:16;;;;;;;22.85;11.48;;;;;;;;;;5004449;28;20077;-44
2022/10/23 06:54:45;;;;;;;25.17;11.57;;;;;;;;;;5009974;28;20475;-44
2022/10/23 06:57:13;;;;;;;23.45;10.70;;;;;;;;;;5013945;28;20050;-45
2022/10/23 06:59:42;;;;;;;23.83;11.50;;;;;;;;;;5003814;28;20046;-46
2022/10/23 07:02:12;;;;;;;23.67;10.45;;;;;;;;;;5013588;28;20058;-45
2022/10/23 07:04:42;;;;;;;25.08;10.32;;;;;;;;;;5013285;28;20050;-44
2022/10/23 07:07:10;;;;;;;25.65;10.43;;;;;;;;;;5013880;28;20053;-45
2022/10/23 07:09:40;;;;;;;22.88;10.10;;;;;;;;;;5003859;28;20077;-46
2022/10/23 07:12:10;;;;;;;24.92;10.43;;;;;;;;;;5002697;28;20046;-46
2022/10/23 07:14:39;;;;;;;26.40;9.75;;;;;;;;;;5004405;28;20113;-44
2022/10/23 07:17:07;;;;;;;27.95;10.30;;;;;;;;;;5006953;28;20076;-44
2022/10/23 07:19:36;;;;;;;20.92;10.15;;;;;;;;;;5022462;28;20081;-45
2022/10/23 07:22:06;;;;;;;22.20;9.98;;;;;;;;;;5008824;28;20057;-46
2022/10/23 07:24:37;;;;;;;21.20;9.20;;;;;;;;;;5009375;28;20042;-43
2022/10/23 07:27:07;;;;;;;20.42;9.50;;;;;;;;;;5021156;28;20111;-44
2022/10/23 07:29:34;;;;;;;19.90;9.30;;;;;;;;;;5020404;28;20054;-43
2022/10/23 07:32:01;;;;;;;17.45;8.63;;;;;;;;;;5009668;28;20049;-44
2022/10/23 07:34:31;;;;;;;18.73;8.63;;;;;;;;;;5005175;28;20514;-44
2022/10/23 07:36:58;;;;;;;15.02;8.27;;;;;;;;;;5009504;28;20562;-45
2022/10/23 07:39:33;;;;;;;22.33;9.45;;;;;;;;;;5019776;28;20118;-44
2022/10/23 07:42:00;;;;;;;20.40;10.30;;;;;;;;;;5023527;28;20118;-44
2022/10/23 07:44:28;;;;;;;19.92;9.18;;;;;;;;;;5016398;28;20076;-44
2022/10/23 07:46:58;;;;;;;18.20;9.10;;;;;;;;;;5004832;28;20052;-45
2022/10/23 07:49:27;;;;;;;18.38;9.52;;;;;;;;;;4992748;28;20050;-44
2022/10/23 07:51:57;;;;;;;19.33;9.00;;;;;;;;;;4993774;28;20074;-43
2022/10/23 07:54:40;;;;;;;16.90;8.25;;;;;;;;;;4995995;28;20479;-43
2022/10/23 07:57:11;;;;;;;15.02;8.40;;;;;;;;;;5005075;28;20058;-45
2022/10/23 07:59:40;;;;;;;18.58;8.70;;;;;;;;;;5002125;28;20116;-45
2022/10/23 08:02:18;;;;;;;14.27;6.22;;;;;;;;;;4993427;28;20109;-44
2022/10/23 08:04:48;;;;;;;17.33;8.48;;;;;;;;;;4992908;28;20069;-44
2022/10/23 08:07:17;;;;;;;15.15;7.25;;;;;;;;;;4993462;28;20054;-44
2022/10/23 08:09:46;;;;;;;15.65;8.43;;;;;;;;;;4992749;28;20062;-45
2022/10/23 08:12:27;;;;;;;20.08;8.07;;;;;;;;;;4996610;28;20057;-44
2022/10/23 08:14:54;;;;;;;19.25;9.25;;;;;;;;;;5006078;28;20081;-44
2022/10/23 08:17:22;;;;;;;15.90;8.38;;;;;;;;;;5002509;28;20091;-45
2022/10/23 08:19:49;;;;;;;13.38;7.38;;;;;;;;;;5007000;28;20630;-44
2022/10/23 08:22:17;;;;;;;16.63;8.98;;;;;;;;;;5004961;28;20103;-45
2022/10/23 08:24:45;;;;;;;16.40;8.23;;;;;;;;;;5015082;28;20073;-46
2022/10/23 08:27:29;;;;;;;14.27;7.55;;;;;;;;;;5010387;28;20068;-45
2022/10/23 08:29:56;;;;;;;17.15;8.73;;;;;;;;;;4995856;28;20050;-43
2022/10/23 08:32:23;;;;;;;14.82;8.38;;;;;;;;;;5007443;28;20046;-46
2022/10/23 08:34:52;;;;;;;14.32;7.90;;;;;;;;;;4997671;28;20077;-45
2022/10/23 08:37:18;;;;;;;15.70;7.65;;;;;;;;;;4998388;28;20050;-45
2022/10/23 08:39:46;;;;;;;13.13;6.10;;;;;;;;;;5003324;28;20052;-44
2022/10/23 08:42:23;;;;;;;18.15;7.38;;;;;;;;;;5013909;28;20150;-44
2022/10/23 08:44:53;;;;;;;14.63;7.57;;;;;;;;;;5001493;28;20411;-45
2022/10/23 08:47:27;;;;;;;12.25;5.95;;;;;;;;;;5009694;28;20558;-44
2022/10/23 08:49:56;;;;;;;11.30;5.75;;;;;;;;;;5004259;28;20053;-44
2022/10/23 08:52:25;;;;;;;11.55;6.13;;;;;;;;;;5012727;28;20145;-45
2022/10/23 08:54:59;;;;;;;7.55;4.78;;;;;;;;;;5012214;28;20088;-45
2022/10/23 08:57:34;;;;;;;8.88;4.80;;;;;;;;;;5014095;28;20066;-44
2022/10/23 09:00:04;;;;;;;8.50;4.53;;;;;;;;;;5012968;28;20060;-45
2022/10/23 09:02:34;;;;;;;6.65;3.97;;;;;;;;;;5016087;28;20046;-44
2022/10/23 09:05:00;;;;;;;7.20;3.50;;;;;;;;;;5011790;28;20050;-43
2022/10/23 09:07:34;;;;;;;5.40;3.47;;;;;;;;;;5009447;28;20050;-44
2022/10/23 09:10:10;;;;;;;6.22;3.83;;;;;;;;;;5014677;28;20046;-45
2022/10/23 09:12:41;;;;;;;7.43;3.83;;;;;;;;;;5012269;28;20052;-46
2022/10/23 09:15:26;;;;;;;6.10;3.28;;;;;;;;;;5013339;28;20143;-44
2022/10/23 09:17:58;;;;;;;5.05;2.95;;;;;;;;;;5007731;28;20147;-45
2022/10/23 09:20:27;;;;;;;6.88;3.50;;;;;;;;;;5012012;28;20054;-44
2022/10/23 09:23:02;;;;;;;6.70;2.92;;;;;;;;;;5007521;28;20057;-44
2022/10/23 09:25:31;;;;;;;4.03;2.45;;;;;;;;;;5014115;28;20137;-43
2022/10/23 09:28:02;;;;;;;6.53;2.90;;;;;;;;;;5008335;28;20064;-49
2022/10/23 09:30:33;;;;;;;3.92;2.20;;;;;;;;;;5017753;28;20053;-44
2022/10/23 09:33:15;;;;;;;4.40;2.03;;;;;;;;;;5011848;28;20067;-45
2022/10/23 09:35:51;;;;;;;4.65;2.35;;;;;;;;;;5013565;28;20112;-44
2022/10/23 09:38:25;;;;;;;4.07;2.45;;;;;;;;;;5024284;28;20053;-48
2022/10/23 09:40:55;;;;;;;3.75;2.20;;;;;;;;;;5018748;28;20462;-44
2022/10/23 09:43:26;;;;;;;3.35;2.00;;;;;;;;;;5020095;28;20435;-44
2022/10/23 09:46:05;;;;;;;5.20;2.10;;;;;;;;;;5005499;28;20537;-44
2022/10/23 09:48:32;;;;;;;4.10;1.80;;;;;;;;;;5005612;28;20164;-44
2022/10/23 09:51:02;;;;;;;5.00;1.80;;;;;;;;;;5010470;28;20089;-45
2022/10/23 09:53:31;;;;;;;3.17;1.83;;;;;;;;;;5009804;28;20475;-45
2022/10/23 09:56:01;;;;;;;2.75;1.50;;;;;;;;;;5014585;28;20057;-46
2022/10/23 09:58:36;;;;;;;4.45;2.15;;;;;;;;;;5009954;28;20391;-45
2022/10/23 10:01:04;;;;;;;5.55;2.22;;;;;;;;;;5013910;28;20085;-45
2022/10/23 10:03:32;;;;;;;3.13;1.65;;;;;;;;;;5008524;28;20049;-47
2022/10/23 10:06:00;;;;;;;6.32;2.10;;;;;;;;;;4999892;28;20530;-48
2022/10/23 10:08:38;;;;;;;3.38;1.83;;;;;;;;;;5006300;28;20458;-48
2022/10/23 10:11:13;;;;;;;5.97;1.75;;;;;;;;;;5010318;28;20060;-48
2022/10/23 10:13:52;;;;;;;4.23;1.60;;;;;;;;;;5012780;28;20061;-47
2022/10/23 10:16:27;;;;;;;3.83;1.80;;;;;;;;;;5015362;28;20057;-48
2022/10/23 10:19:01;;;;;;;2.92;1.60;;;;;;;;;;5009079;28;20062;-47
2022/10/23 10:21:32;;;;;;;2.22;1.20;;;;;;;;;;5008924;28;20060;-48
2022/10/23 10:24:08;;;;;;;3.10;1.40;;;;;;;;;;5001037;28;20062;-48
2022/10/23 10:26:38;;;;;;;;;;;;;;;;;;5010915;28;20056;-48
2022/10/23 10:29:19;;;;;;;3.50;1.98;;;;;;;;;;5009706;28;19929;-47
2022/10/23 10:31:54;;;;;;;1.75;1.10;;;;;;;;;;5005040;28;20041;-47
2022/10/23 10:34:26;;;;;;;4.35;1.73;;;;;;;;;;5010898;28;20488;-47
2022/10/23 10:37:03;;;;;;;4.72;2.00;;;;;;;;;;5011725;28;20056;-47
2022/10/23 10:39:47;;;;;;;2.80;1.30;;;;;;;;;;5012151;28;20064;-48
2022/10/23 10:42:33;;;;;;;3.83;1.45;;;;;;;;;;5014796;28;20360;-48
2022/10/23 10:45:10;;;;;;;3.72;1.45;;;;;;;;;;4998303;28;20052;-47
2022/10/23 10:47:42;;;;;;;3.38;1.50;;;;;;;;;;5009260;28;20418;-49
2022/10/23 10:50:16;;;;;;;3.92;1.63;;;;;;;;;;5013474;28;20060;-48
2022/10/23 10:52:48;;;;;;;3.95;1.73;;;;;;;;;;5011305;28;20527;-47
2022/10/23 10:55:19;;;;;;;2.50;1.50;;;;;;;;;;5009578;28;20062;-48
2022/10/23 10:57:49;;;;;;;4.43;1.70;;;;;;;;;;5013599;28;20190;-48
2022/10/23 11:00:24;;;;;;;4.65;1.70;;;;;;;;;;5013799;28;20063;-49
2022/10/23 11:02:55;;;;;;;2.78;1.77;;;;;;;;;;5013913;28;20074;-46
2022/10/23 11:05:29;;;;;;;5.18;2.60;;;;;;;;;;5008743;28;20058;-49
2022/10/23 11:07:58;;;;;;;8.60;4.45;;;;;;;;;;5012986;28;20054;-46
2022/10/23 11:10:27;;;;;;;3.90;1.98;;;;;;;;;;5012669;28;20463;-47
2022/10/23 11:12:57;;;;;;;2.40;1.60;;;;;;;;;;5004071;28;20052;-47
2022/10/23 11:15:41;;;;;;;2.92;1.50;;;;;;;;;;5019407;28;20041;-48
2022/10/23 11:18:15;;;;;;;3.35;1.42;;;;;;;;;;5018510;28;20057;-50
2022/10/23 11:20:51;;;;;;;3.67;2.00;;;;;;;;;;5010279;28;20099;-50
2022/10/23 11:23:38;;;;;;;4.95;2.22;;;;;;;;;;5012221;28;20129;-47
2022/10/23 11:26:16;;;;;;;4.78;2.42;;;;;;;;;;5012776;28;20049;-46
2022/10/23 11:28:52;;;;;;;7.32;2.72;;;;;;;;;;5010884;28;20443;-47
2022/10/23 11:31:31;;;;;;;;;;;;;;;;;;5013522;28;20046;-48
2022/10/23 11:34:30;;;;;;;8.20;3.58;;;;;;;;;;5019304;28;19925;-48
2022/10/23 11:37:08;;;;;;;10.77;5.10;;;;;;;;;;4966850;28;20054;-47
2022/10/23 11:39:46;;;;;;;9.63;4.05;;;;;;;;;;5013669;28;20421;-47
2022/10/23 11:42:23;;;;;;;7.03;3.05;;;;;;;;;;4999956;28;20054;-49
2022/10/23 11:44:50;;;;;;;8.80;3.38;;;;;;;;;;5006626;28;20777;-47
2022/10/23 11:47:54;;;;;;;9.57;3.53;;;;;;;;;;5016710;28;20380;-48
2022/10/23 11:50:32;;;;;;;6.32;2.85;;;;;;;;;;4998154;28;20050;-48
2022/10/23 11:53:09;;;;;;;6.18;2.58;;;;;;;;;;5012147;28;20113;-47
2022/10/23 11:55:40;;;;;;;5.10;2.25;;;;;;;;;;4998893;28;20134;-48
2022/10/23 11:58:30;;;;;;;4.03;1.80;;;;;;;;;;5004374;28;20057;-48
2022/10/23 12:00:59;;;;;;;3.28;1.67;;;;;;;;;;5011885;28;20054;-48
2022/10/23 12:03:33;;;;;;;3.45;1.73;;;;;;;;;;5001280;28;20077;-50
2022/10/23 12:06:03;;;;;;;3.90;1.70;;;;;;;;;;4995162;28;20054;-51
2022/10/23 12:08:40;;;;;;;3.63;1.73;;;;;;;;;;5004526;28;20056;-47
2022/10/23 12:11:22;;;;;;;2.83;1.20;;;;;;;;;;4993041;28;20109;-48
2022/10/23 12:13:49;;;;;;;3.60;1.60;;;;;;;;;;5005589;28;20194;-46
2022/10/23 12:16:19;;;;;;;2.70;1.55;;;;;;;;;;4992093;28;20054;-47
2022/10/23 12:18:50;;;;;;;4.57;2.40;;;;;;;;;;5008865;28;20107;-47
2022/10/23 12:21:19;;;;;;;5.90;2.35;;;;;;;;;;5010826;28;20068;-49
2022/10/23 12:24:13;;;;;;;3.78;1.88;;;;;;;;;;5001687;28;20390;-47
2022/10/23 12:26:59;;;;;;;2.72;1.60;;;;;;;;;;4999272;28;20057;-48
2022/10/23 12:29:39;;;;;;;4.38;2.00;;;;;;;;;;4984061;28;20058;-47
2022/10/23 12:32:16;;;;;;;4.32;1.55;;;;;;;;;;5005529;28;20374;-46
2022/10/23 12:34:53;;;;;;;3.42;1.33;;;;;;;;;;5005792;28;20462;-48
2022/10/23 12:37:38;;;;;;;3.67;1.40;;;;;;;;;;5014466;28;20054;-47
2022/10/23 12:40:21;;;;;;;3.17;1.70;;;;;;;;;;5005099;28;20577;-47
2022/10/23 12:43:01;;;;;;;4.32;1.83;;;;;;;;;;5013646;28;20038;-47
2022/10/23 12:45:32;;;;;;;1.95;1.02;;;;;;;;;;5016511;28;20069;-47
2022/10/23 12:48:02;;;;;;;5.20;1.52;;;;;;;;;;5015201;28;20049;-49
2022/10/23 12:50:38;;;;;;;2.15;1.05;;;;;;;;;;5016398;28;20085;-50
2022/10/23 12:53:09;;;;;;;3.88;1.45;;;;;;;;;;5012342;28;20037;-47
2022/10/23 12:55:46;;;;;;;3.13;1.30;;;;;;;;;;5015772;28;20112;-47
2022/10/23 12:58:18;;;;;;;5.13;1.73;;;;;;;;;;5013983;28;20523;-47
2022/10/23 13:00:52;;;;;;;2.20;1.23;;;;;;;;;;5016848;28;20046;-47
2022/10/23 13:03:21;;;;;;;2.60;1.38;;;;;;;;;;5016878;28;20042;-48
2022/10/23 13:05:59;;;;;;;3.72;1.50;;;;;;;;;;5016330;28;20049;-47
2022/10/23 13:08:32;;;;;;;2.50;1.27;;;;;;;;;;5013496;28;20061;-50
2022/10/23 13:11:00;;;;;;;3.30;1.42;;;;;;;;;;5007840;28;20064;-47
2022/10/23 13:13:30;;;;;;;3.50;1.20;;;;;;;;;;5013335;28;20072;-47
2022/10/23 13:16:01;;;;;;;2.83;1.40;;;;;;;;;;5015195;28;20050;-51
2022/10/23 13:18:31;;;;;;;3.90;1.38;;;;;;;;;;5013776;28;20137;-47
2022/10/23 13:21:01;;;;;;;2.70;1.27;;;;;;;;;;5015865;28;20066;-47
2022/10/23 13:23:39;;;;;;;1.95;1.20;;;;;;;;;;5013466;28;20160;-47
2022/10/23 13:26:09;;;;;;;6.88;1.42;;;;;;;;;;5010968;28;20521;-48
2022/10/23 13:28:44;;;;;;;2.72;1.40;;;;;;;;;;5001438;28;20060;-47
2022/10/23 13:31:38;;;;;;;4.75;1.70;;;;;;;;;;5011917;28;20687;-47
2022/10/23 13:34:21;;;;;;;3.10;1.40;;;;;;;;;;5005804;28;20086;-47
2022/10/23 13:37:00;;;;;;;4.05;1.35;;;;;;;;;;5002295;28;20056;-48
2022/10/23 13:39:32;;;;;;;2.97;1.30;;;;;;;;;;5012344;28;20065;-47
2022/10/23 13:42:09;;;;;;;2.45;1.58;;;;;;;;;;5005033;28;20057;-47
2022/10/23 13:44:38;;;;;;;2.85;1.27;;;;;;;;;;5020685;28;20052;-48
2022/10/23 13:47:10;;;;;;;2.50;1.20;;;;;;;;;;5008259;28;20054;-48
2022/10/23 13:49:39;;;;;;;3.33;1.60;;;;;;;;;;5010350;28;20481;-49
2022/10/23 13:52:12;;;;;;;4.68;1.63;;;;;;;;;;5016457;28;20050;-48
2022/10/23 13:54:42;;;;;;;4.90;1.20;;;;;;;;;;5029865;28;20066;-49
2022/10/23 13:57:13;;;;;;;4.95;1.25;;;;;;;;;;5020322;28;20060;-49
2022/10/23 13:59:39;;;;;;;5.68;1.95;;;;;;;;;;5005364;28;20077;-50
2022/10/23 14:02:14;;;;;;;2.50;1.23;;;;;;;;;;5004871;28;20508;-47
2022/10/23 14:04:45;;;;;;;2.53;1.10;;;;;;;;;;5005142;28;20108;-48
2022/10/23 14:07:15;;;;;;;1.75;0.93;;;;;;;;;;5009337;28;20050;-47
2022/10/23 14:09:42;;;;;;;2.08;0.70;;;;;;;;;;5003463;28;20057;-50
2022/10/23 14:12:11;;;;;;;2.63;0.88;;;;;;;;;;5001075;28;20443;-48
2022/10/23 14:14:41;;;;;;;11.55;2.25;;;;;;;;;;4998453;28;20474;-47
2022/10/23 14:17:12;;;;;;;4.03;1.20;;;;;;;;;;5001908;28;20403;-47
2022/10/23 14:19:42;;;;;;;2.83;1.00;;;;;;;;;;5014155;28;20050;-47
2022/10/23 14:22:10;;;;;;;6.90;1.55;;;;;;;;;;5014660;28;20550;-47
2022/10/23 14:24:47;;;;;;;2.60;0.80;;;;;;;;;;5009750;28;20134;-49
2022/10/23 14:27:17;;;;;;;1.60;0.80;;;;;;;;;;5008087;28;20534;-47
2022/10/23 14:29:47;;;;;;;5.10;1.65;;;;;;;;;;5007243;28;20042;-47
2022/10/23 14:32:17;;;;;;;2.78;0.80;;;;;;;;;;5005106;28;20104;-47
2022/10/23 14:34:49;;;;;;;1.50;0.90;;;;;;;;;;5013463;28;20048;-47
2022/10/23 14:37:26;;;;;;;3.80;1.42;;;;;;;;;;5002808;28;20054;-47
2022/10/23 14:40:04;;;;;;;3.70;1.15;;;;;;;;;;5007421;28;20498;-47
2022/10/23 14:42:34;;;;;;;1.63;0.60;;;;;;;;;;5027258;28;20054;-47
2022/10/23 14:45:04;;;;;;;2.38;1.13;;;;;;;;;;5028442;28;20085;-46
2022/10/23 14:47:31;;;;;;;1.95;0.88;;;;;;;;;;5027029;28;20060;-47
2022/10/23 14:50:02;;;;;;;4.25;1.00;;;;;;;;;;5005339;28;20060;-48
2022/10/23 14:52:30;;;;;;;1.27;0.70;;;;;;;;;;5026701;28;20125;-47
2022/10/23 14:55:09;;;;;;;1.45;0.77;;;;;;;;;;5031656;28;20049;-47
2022/10/23 14:57:36;;;;;;;6.07;1.20;;;;;;;;;;5029168;28;20049;-46
2022/10/23 15:00:12;;;;;;;1.35;0.70;;;;;;;;;;5003952;28;20530;-47
2022/10/23 15:02:39;;;;;;;1.52;0.80;;;;;;;;;;5000221;28;20163;-46
2022/10/23 15:05:09;;;;;;;1.70;0.90;;;;;;;;;;5002179;28;20049;-47
2022/10/23 15:07:39;;;;;;;1.40;0.82;;;;;;;;;;5010958;28;20060;-47